Time;durP1;ratioP1;P1;durP2;ratioP2;P2;SDS_P1;SDS_P2;PMS_P1;PMS_P2;Temp;Humidity;BMP_temperature;BMP_pressure;BME280_temperature;BME280_humidity;BME280_pressure;Samples;Min_cycle;Max_cycle;Signal;HPM_P1;HPM_P2
2022/11/21 00:00:56;;;;;;;15.38;7.60;;;1.90;99.90;;;;;;7404170;19;19919;-64
2022/11/21 00:03:25;;;;;;;16.33;7.40;;;1.90;99.90;;;;;;7403765;19;19914;-64
2022/11/21 00:05:58;;;;;;;16.08;7.53;;;1.80;99.90;;;;;;7405733;19;19926;-65
2022/11/21 00:08:27;;;;;;;17.42;7.60;;;1.80;99.90;;;;;;7404810;19;19914;-64
2022/11/21 00:10:55;;;;;;;15.73;7.35;;;1.80;99.90;;;;;;7404251;19;19919;-64
2022/11/21 00:13:24;;;;;;;14.60;6.93;;;1.80;99.90;;;;;;7405346;19;19955;-64
2022/11/21 00:15:53;;;;;;;14.05;6.95;;;1.80;99.90;;;;;;7404326;19;19933;-64
2022/11/21 00:18:22;;;;;;;16.60;8.25;;;1.70;99.90;;;;;;7408487;19;19918;-64
2022/11/21 00:20:51;;;;;;;13.20;7.47;;;1.70;99.90;;;;;;7404911;19;19925;-65
2022/11/21 00:23:27;;;;;;;14.13;7.03;;;1.70;99.90;;;;;;7403227;19;19927;-64
2022/11/21 00:25:55;;;;;;;14.55;7.78;;;1.70;99.90;;;;;;7404810;19;19940;-65
2022/11/21 00:28:24;;;;;;;15.25;7.38;;;1.70;99.90;;;;;;7404300;19;19918;-64
2022/11/21 00:30:53;;;;;;;15.63;7.57;;;1.60;99.90;;;;;;7404567;19;19939;-64
2022/11/21 00:33:22;;;;;;;15.10;7.30;;;1.50;99.90;;;;;;7403699;19;20316;-64
2022/11/21 00:35:51;;;;;;;18.00;7.65;;;1.50;99.90;;;;;;7403938;19;19923;-64
2022/11/21 00:38:23;;;;;;;16.83;8.13;;;1.40;99.90;;;;;;7406119;19;19923;-64
2022/11/21 00:40:52;;;;;;;15.05;7.38;;;1.40;99.90;;;;;;7404084;19;19943;-65
2022/11/21 00:43:21;;;;;;;16.88;7.55;;;1.40;99.90;;;;;;7402967;19;19926;-65
2022/11/21 00:45:50;;;;;;;13.65;7.93;;;1.40;99.90;;;;;;7401966;19;19914;-64
2022/11/21 00:48:19;;;;;;;16.25;7.63;;;1.40;99.90;;;;;;7405300;19;19929;-64
2022/11/21 00:50:50;;;;;;;16.63;8.00;;;1.40;99.90;;;;;;7404934;19;20014;-64
2022/11/21 00:53:19;;;;;;;14.95;7.70;;;1.40;99.90;;;;;;7406828;19;19918;-64
2022/11/21 00:55:54;;;;;;;17.00;7.85;;;1.40;99.90;;;;;;7402794;19;19910;-64
2022/11/21 00:58:23;;;;;;;14.70;7.70;;;1.40;99.90;;;;;;7406541;19;19926;-64
2022/11/21 01:00:52;;;;;;;15.57;7.93;;;1.40;99.90;;;;;;7406975;19;19926;-64
2022/11/21 01:03:21;;;;;;;17.98;8.15;;;1.30;99.90;;;;;;7402993;19;19918;-65
2022/11/21 01:05:50;;;;;;;15.05;7.47;;;1.30;99.90;;;;;;7403715;19;19978;-64
2022/11/21 01:08:20;;;;;;;15.50;8.38;;;1.20;99.90;;;;;;7403571;19;20355;-64
2022/11/21 01:10:49;;;;;;;17.67;7.82;;;1.20;99.90;;;;;;7404273;19;19923;-64
2022/11/21 01:13:21;;;;;;;15.80;8.05;;;1.20;99.90;;;;;;7406492;19;19931;-64
2022/11/21 01:15:50;;;;;;;12.57;7.22;;;1.10;99.90;;;;;;7404074;19;19922;-64
2022/11/21 01:18:20;;;;;;;18.35;8.32;;;1.10;99.90;;;;;;7403105;19;19931;-64
2022/11/21 01:20:49;;;;;;;16.98;7.85;;;1.00;99.90;;;;;;7405170;19;19915;-64
2022/11/21 01:23:18;;;;;;;16.15;7.72;;;1.00;99.90;;;;;;7404447;19;19922;-64
2022/11/21 01:25:47;;;;;;;16.38;7.60;;;1.00;99.90;;;;;;7401201;19;19919;-64
2022/11/21 01:28:16;;;;;;;17.55;8.32;;;0.90;99.90;;;;;;7402650;19;19919;-64
2022/11/21 01:30:48;;;;;;;17.20;8.70;;;0.90;99.90;;;;;;7404605;19;20422;-64
2022/11/21 01:33:16;;;;;;;15.27;8.02;;;0.80;99.90;;;;;;7402957;19;19925;-64
2022/11/21 01:35:45;;;;;;;15.95;7.82;;;0.80;99.90;;;;;;7402960;19;19923;-64
2022/11/21 01:38:14;;;;;;;17.85;9.40;;;0.70;99.90;;;;;;7401362;19;19922;-65
2022/11/21 01:40:43;;;;;;;16.40;7.88;;;0.70;99.90;;;;;;7406158;19;19925;-65
2022/11/21 01:43:15;;;;;;;18.00;8.18;;;0.60;99.90;;;;;;7401450;19;19981;-64
2022/11/21 01:45:59;;;;;;;17.17;8.35;;;0.60;99.90;;;;;;7405721;19;19914;-65
2022/11/21 01:48:36;;;;;;;17.25;8.48;;;0.50;99.90;;;;;;7402011;19;19914;-64
2022/11/21 01:51:13;;;;;;;18.70;8.95;;;0.50;99.90;;;;;;7402856;19;19918;-64
2022/11/21 01:53:47;;;;;;;16.25;7.45;;;0.40;99.90;;;;;;7401889;19;19922;-64
2022/11/21 01:56:17;;;;;;;13.00;7.10;;;0.40;99.90;;;;;;7402719;19;20337;-64
2022/11/21 01:58:47;;;;;;;16.35;8.38;;;0.40;99.90;;;;;;7400965;19;20556;-64
2022/11/21 02:01:19;;;;;;;16.60;8.57;;;0.40;99.90;;;;;;7402243;19;19983;-64
2022/11/21 02:03:49;;;;;;;15.82;7.63;;;0.50;99.90;;;;;;7403962;19;19922;-64
2022/11/21 02:06:19;;;;;;;18.13;8.68;;;0.50;99.90;;;;;;7401563;19;20251;-64
2022/11/21 02:08:48;;;;;;;16.23;7.47;;;0.50;99.90;;;;;;7408168;19;19917;-64
2022/11/21 02:11:23;;;;;;;16.77;8.13;;;0.50;99.90;;;;;;7408122;19;19919;-64
2022/11/21 02:13:52;;;;;;;14.60;7.78;;;0.60;99.90;;;;;;7408885;19;19930;-64
2022/11/21 02:16:25;;;;;;;19.17;8.43;;;0.60;99.90;;;;;;7409475;19;19918;-64
2022/11/21 02:18:54;;;;;;;18.10;8.57;;;0.70;99.90;;;;;;7407971;19;19918;-64
2022/11/21 02:21:34;;;;;;;18.00;8.38;;;0.70;99.90;;;;;;7409647;19;20359;-65
2022/11/21 02:24:08;;;;;;;15.23;7.47;;;0.70;99.90;;;;;;7405708;19;19922;-65
2022/11/21 02:26:40;;;;;;;22.83;8.65;;;0.80;99.90;;;;;;7408847;19;19943;-64
2022/11/21 02:29:09;;;;;;;15.15;7.93;;;0.90;99.90;;;;;;7411411;19;19922;-64
2022/11/21 02:31:38;;;;;;;15.55;7.78;;;0.90;99.90;;;;;;7408959;19;19922;-64
2022/11/21 02:34:07;;;;;;;16.35;8.23;;;1.00;99.90;;;;;;7408341;19;19935;-65
2022/11/21 02:36:43;;;;;;;16.02;8.27;;;1.00;99.90;;;;;;7405841;19;19979;-65
2022/11/21 02:39:17;;;;;;;17.92;8.10;;;1.10;99.90;;;;;;7407444;19;19997;-64
2022/11/21 02:41:56;;;;;;;14.70;7.90;;;1.10;99.90;;;;;;7407430;19;19918;-65
2022/11/21 02:44:30;;;;;;;18.17;8.50;;;1.20;99.90;;;;;;7405390;19;19918;-65
2022/11/21 02:46:59;;;;;;;17.15;8.35;;;1.30;99.90;;;;;;7407366;19;19922;-65
2022/11/21 02:49:41;;;;;;;18.85;9.55;;;1.30;99.90;;;;;;7407957;19;19947;-64
2022/11/21 02:52:11;;;;;;;14.88;7.93;;;1.30;99.90;;;;;;7408834;19;20367;-64
2022/11/21 02:54:40;;;;;;;16.52;7.55;;;1.30;99.90;;;;;;7407827;19;19928;-65
2022/11/21 02:57:11;;;;;;;17.83;8.25;;;1.30;99.90;;;;;;7406546;19;19943;-64
2022/11/21 02:59:41;;;;;;;17.67;7.63;;;1.40;99.90;;;;;;7408419;19;20317;-65
2022/11/21 03:02:10;;;;;;;16.08;8.13;;;1.40;99.90;;;;;;7407246;19;19922;-64
2022/11/21 03:04:39;;;;;;;15.27;7.07;;;1.40;99.90;;;;;;7407697;19;19922;-65
2022/11/21 03:07:08;;;;;;;19.02;8.95;;;1.30;99.90;;;;;;7406586;19;19928;-64
2022/11/21 03:09:37;;;;;;;17.15;7.65;;;1.30;99.90;;;;;;7408110;19;19915;-65
2022/11/21 03:12:12;;;;;;;17.02;8.93;;;1.30;99.90;;;;;;7403734;19;19974;-64
2022/11/21 03:14:41;;;;;;;16.33;8.10;;;1.30;99.90;;;;;;7407393;19;19932;-65
2022/11/21 03:17:10;;;;;;;15.45;8.02;;;1.30;99.90;;;;;;7405484;19;19942;-64
2022/11/21 03:19:39;;;;;;;16.27;7.90;;;1.30;99.90;;;;;;7407391;19;20337;-66
2022/11/21 03:22:08;;;;;;;15.02;7.75;;;1.30;99.90;;;;;;7406274;19;20007;-64
2022/11/21 03:24:37;;;;;;;15.73;8.38;;;1.30;99.90;;;;;;7404865;19;19915;-64
2022/11/21 03:27:06;;;;;;;17.05;7.47;;;1.30;99.90;;;;;;7406102;19;19915;-65
2022/11/21 03:29:38;;;;;;;15.57;8.85;;;1.30;99.90;;;;;;7407956;19;19922;-64
2022/11/21 03:32:07;;;;;;;19.33;8.82;;;1.30;99.90;;;;;;7405339;19;19923;-65
2022/11/21 03:34:36;;;;;;;17.23;8.30;;;1.30;99.90;;;;;;7407994;19;20266;-64
2022/11/21 03:37:05;;;;;;;19.80;10.20;;;1.40;99.90;;;;;;7406468;19;19961;-64
2022/11/21 03:39:34;;;;;;;16.85;8.77;;;1.40;99.90;;;;;;7407082;19;20348;-65
2022/11/21 03:42:03;;;;;;;19.88;8.50;;;1.40;99.90;;;;;;7405757;19;20261;-64
2022/11/21 03:44:32;;;;;;;17.05;8.85;;;1.40;99.90;;;;;;7404637;19;20655;-65
2022/11/21 03:47:04;;;;;;;16.90;8.55;;;1.40;99.90;;;;;;7407702;19;20313;-64
2022/11/21 03:49:32;;;;;;;19.33;9.70;;;1.40;99.90;;;;;;7405529;19;20396;-65
2022/11/21 03:52:01;;;;;;;19.13;8.90;;;1.40;99.90;;;;;;7408046;19;19970;-65
2022/11/21 03:54:31;;;;;;;20.13;8.63;;;1.40;99.90;;;;;;7408675;19;20360;-65
2022/11/21 03:57:00;;;;;;;18.33;9.30;;;1.40;99.90;;;;;;7404789;19;19970;-66
2022/11/21 03:59:29;;;;;;;15.40;8.05;;;1.50;99.90;;;;;;7405526;19;19921;-65
2022/11/21 04:01:58;;;;;;;17.65;7.80;;;1.50;99.90;;;;;;7405187;19;19970;-65
2022/11/21 04:04:29;;;;;;;16.88;8.73;;;1.50;99.90;;;;;;7404849;19;19953;-65
2022/11/21 04:06:58;;;;;;;18.30;9.23;;;1.50;99.90;;;;;;7406983;19;20358;-65
2022/11/21 04:09:27;;;;;;;19.00;8.98;;;1.50;99.90;;;;;;7404925;19;19928;-65
2022/11/21 04:11:56;;;;;;;15.05;8.48;;;1.50;99.90;;;;;;7405020;19;19964;-64
2022/11/21 04:14:25;;;;;;;17.25;8.88;;;1.50;99.90;;;;;;7404690;19;19928;-64
2022/11/21 04:16:54;;;;;;;16.58;8.82;;;1.50;99.90;;;;;;7404921;19;19921;-65
2022/11/21 04:19:23;;;;;;;16.73;8.43;;;1.50;99.90;;;;;;7405658;19;19939;-64
2022/11/21 04:21:54;;;;;;;17.42;8.45;;;1.50;99.90;;;;;;7406210;19;19915;-65
2022/11/21 04:24:23;;;;;;;17.83;8.65;;;1.50;99.90;;;;;;7403209;19;19919;-65
2022/11/21 04:26:52;;;;;;;20.75;9.55;;;1.50;99.90;;;;;;7404033;19;19918;-65
2022/11/21 04:29:21;;;;;;;18.40;9.40;;;1.50;99.90;;;;;;7403401;19;19930;-65
2022/11/21 04:31:50;;;;;;;17.25;8.77;;;1.50;99.90;;;;;;7408341;19;19930;-65
2022/11/21 04:34:19;;;;;;;20.38;8.43;;;1.50;99.90;;;;;;7401962;19;20246;-65
2022/11/21 04:36:48;;;;;;;20.15;9.48;;;1.50;99.90;;;;;;7404069;19;19929;-65
2022/11/21 04:39:20;;;;;;;18.25;8.85;;;1.50;99.90;;;;;;7403306;19;19928;-65
2022/11/21 04:41:49;;;;;;;15.65;8.10;;;1.50;99.90;;;;;;7407192;19;19930;-65
2022/11/21 04:44:18;;;;;;;18.65;9.13;;;1.50;99.90;;;;;;7403420;19;20348;-65
2022/11/21 04:46:48;;;;;;;19.23;9.70;;;1.50;99.90;;;;;;7403536;19;20617;-65
2022/11/21 04:49:17;;;;;;;19.60;9.48;;;1.50;99.90;;;;;;7406795;19;20143;-65
2022/11/21 04:51:46;;;;;;;15.38;7.75;;;1.50;99.90;;;;;;7405534;19;19946;-64
2022/11/21 04:54:15;;;;;;;17.65;8.45;;;1.50;99.90;;;;;;7405906;19;19922;-65
2022/11/21 04:56:47;;;;;;;17.38;8.48;;;1.50;99.90;;;;;;7405901;19;19914;-65
2022/11/21 04:59:16;;;;;;;18.42;9.18;;;1.50;99.90;;;;;;7405087;19;19933;-65
2022/11/21 05:01:46;;;;;;;17.33;8.23;;;1.50;99.90;;;;;;7403421;19;19943;-64
2022/11/21 05:04:15;;;;;;;16.48;9.13;;;1.50;99.90;;;;;;7402878;19;19919;-65
2022/11/21 05:06:44;;;;;;;16.55;8.20;;;1.50;99.90;;;;;;7405854;19;20316;-64
2022/11/21 05:09:13;;;;;;;15.63;8.88;;;1.50;99.90;;;;;;7403520;19;19933;-66
2022/11/21 05:14:27;;;;;;;14.85;8.38;;;1.40;99.90;;;;;;7406771;19;19951;-64
2022/11/21 05:16:56;;;;;;;18.05;8.57;;;1.40;99.90;;;;;;7402854;19;19926;-65
2022/11/21 05:19:25;;;;;;;17.15;8.25;;;1.40;99.90;;;;;;7403377;19;19911;-65
2022/11/21 05:21:54;;;;;;;19.02;9.13;;;1.40;99.90;;;;;;7403799;19;19931;-65
2022/11/21 05:24:23;;;;;;;17.63;9.52;;;1.30;99.90;;;;;;7403300;19;19922;-64
2022/11/21 05:26:53;;;;;;;18.25;8.60;;;1.30;99.90;;;;;;7402475;19;19938;-64
2022/11/21 05:29:22;;;;;;;16.98;8.95;;;1.40;99.90;;;;;;7402467;19;20249;-64
2022/11/21 05:31:54;;;;;;;19.73;8.85;;;1.40;99.90;;;;;;7405495;19;19914;-64
2022/11/21 05:34:23;;;;;;;16.42;8.82;;;1.30;99.90;;;;;;7402704;19;19914;-64
2022/11/21 05:36:56;;;;;;;18.73;9.85;;;1.30;99.90;;;;;;7403399;19;19911;-65
2022/11/21 05:39:28;;;;;;;18.88;10.10;;;1.20;99.90;;;;;;7405326;19;19915;-64
2022/11/21 05:41:58;;;;;;;17.77;9.30;;;1.20;99.90;;;;;;7409202;19;19919;-65
2022/11/21 05:44:24;;;;;;;16.58;8.60;;;1.20;99.90;;;;;;7410207;19;19922;-65
2022/11/21 05:46:55;;;;;;;19.40;9.38;;;1.10;99.90;;;;;;7411774;19;19922;-65
2022/11/21 05:49:24;;;;;;;21.30;9.05;;;1.10;99.90;;;;;;7409534;19;19946;-65
2022/11/21 05:51:53;;;;;;;18.92;9.75;;;1.00;99.90;;;;;;7411123;19;19921;-65
2022/11/21 05:54:22;;;;;;;19.42;9.05;;;1.00;99.90;;;;;;7408838;19;19933;-64
2022/11/21 05:56:52;;;;;;;19.63;9.32;;;0.90;99.90;;;;;;7408503;19;19948;-64
2022/11/21 05:59:21;;;;;;;16.10;8.32;;;0.90;99.90;;;;;;7411586;19;20340;-64
2022/11/21 06:04:34;;;;;;;21.42;9.70;;;0.80;99.90;;;;;;7406392;19;20365;-64
2022/11/21 06:07:04;;;;;;;20.48;10.13;;;0.80;99.90;;;;;;7407971;19;20272;-65
2022/11/21 06:09:33;;;;;;;19.00;8.90;;;0.80;99.90;;;;;;7410557;19;19915;-64
2022/11/21 06:12:03;;;;;;;17.48;9.63;;;0.80;99.90;;;;;;7408346;19;19919;-65
2022/11/21 06:14:32;;;;;;;20.00;10.43;;;0.80;99.90;;;;;;7408607;19;19910;-65
2022/11/21 06:17:01;;;;;;;18.60;9.00;;;0.80;99.90;;;;;;7407897;19;19918;-65
2022/11/21 06:19:30;;;;;;;19.23;9.70;;;0.80;99.90;;;;;;7407810;19;19994;-65
2022/11/21 06:22:01;;;;;;;19.10;10.15;;;0.80;99.90;;;;;;7411273;19;20412;-65
2022/11/21 06:24:30;;;;;;;23.10;9.82;;;0.80;99.90;;;;;;7408834;19;20328;-66
2022/11/21 06:27:00;;;;;;;18.35;9.10;;;0.70;99.90;;;;;;7408992;19;19929;-65
2022/11/21 06:29:29;;;;;;;20.83;10.07;;;0.70;99.90;;;;;;7407595;19;19914;-66
2022/11/21 06:31:58;;;;;;;19.48;9.32;;;0.70;99.90;;;;;;7408046;19;19989;-65
2022/11/21 06:34:33;;;;;;;20.05;9.57;;;0.70;99.90;;;;;;7408158;19;20360;-65
2022/11/21 06:37:05;;;;;;;19.73;9.55;;;0.60;99.90;;;;;;7404883;19;19918;-65
2022/11/21 06:39:34;;;;;;;17.92;9.70;;;0.60;99.90;;;;;;7403493;19;19918;-65
2022/11/21 06:42:03;;;;;;;21.13;9.35;;;0.60;99.90;;;;;;7405516;19;19926;-65
2022/11/21 06:44:33;;;;;;;17.30;8.95;;;0.50;99.90;;;;;;7405113;19;19918;-65
2022/11/21 06:47:02;;;;;;;23.23;9.35;;;0.50;99.90;;;;;;7410428;19;19926;-65
2022/11/21 06:49:31;;;;;;;19.42;10.27;;;0.50;99.90;;;;;;7408711;19;19925;-65
2022/11/21 06:52:00;;;;;;;17.52;9.18;;;0.50;99.90;;;;;;7405682;19;20336;-65
2022/11/21 06:54:31;;;;;;;18.40;9.40;;;0.50;99.90;;;;;;7406846;19;19985;-65
2022/11/21 06:57:01;;;;;;;19.30;9.18;;;0.50;99.90;;;;;;7406251;19;19939;-65
2022/11/21 06:59:30;;;;;;;19.42;9.65;;;0.50;99.90;;;;;;7409720;19;19994;-65
2022/11/21 07:01:59;;;;;;;19.17;8.90;;;0.50;99.90;;;;;;7407206;19;19919;-64
2022/11/21 07:04:32;;;;;;;21.35;8.98;;;0.40;99.90;;;;;;7407771;19;19981;-65
2022/11/21 07:07:01;;;;;;;24.92;10.10;;;0.50;99.90;;;;;;7403578;19;20257;-65
2022/11/21 07:09:34;;;;;;;18.60;9.05;;;0.40;99.90;;;;;;7409377;19;19922;-64
2022/11/21 07:14:45;;;;;;;19.75;8.93;;;0.40;99.90;;;;;;7403117;19;19918;-65
2022/11/21 07:17:14;;;;;;;21.20;9.20;;;0.40;99.90;;;;;;7406393;19;19926;-64
2022/11/21 07:19:44;;;;;;;18.83;8.63;;;0.40;99.90;;;;;;7409032;19;19929;-64
2022/11/21 07:22:13;;;;;;;18.45;9.25;;;0.30;99.90;;;;;;7408247;19;19918;-64
2022/11/21 07:24:44;;;;;;;20.58;10.45;;;0.40;99.90;;;;;;7404881;19;19929;-66
2022/11/21 07:27:13;;;;;;;20.80;10.63;;;0.30;99.90;;;;;;7408609;19;20414;-64
2022/11/21 07:29:42;;;;;;;21.95;10.18;;;0.40;99.90;;;;;;7409900;19;19924;-65
2022/11/21 07:32:12;;;;;;;19.92;9.63;;;0.40;99.90;;;;;;7403554;19;20352;-65
2022/11/21 07:34:40;;;;;;;19.55;9.48;;;0.40;99.90;;;;;;7405672;19;20344;-65
2022/11/21 07:37:09;;;;;;;20.70;10.23;;;0.50;99.90;;;;;;7405582;19;19929;-65
2022/11/21 07:39:38;;;;;;;23.27;10.00;;;0.50;99.90;;;;;;7410617;19;19942;-65
2022/11/21 07:42:10;;;;;;;19.42;9.40;;;0.50;99.90;;;;;;7403788;19;19919;-65
2022/11/21 07:44:39;;;;;;;22.35;10.18;;;0.50;99.90;;;;;;7407595;19;19929;-66
2022/11/21 07:47:08;;;;;;;22.83;11.07;;;0.50;99.90;;;;;;7406702;19;19926;-65
2022/11/21 07:49:37;;;;;;;19.40;9.70;;;0.60;99.90;;;;;;7406281;19;19947;-65
2022/11/21 07:52:06;;;;;;;20.73;10.80;;;0.50;99.90;;;;;;7407004;19;19922;-65
2022/11/21 07:54:35;;;;;;;19.77;9.50;;;0.50;99.90;;;;;;7405564;19;19926;-65
2022/11/21 07:57:05;;;;;;;22.27;10.45;;;0.50;99.90;;;;;;7404182;19;19925;-66
2022/11/21 07:59:37;;;;;;;22.00;10.40;;;0.60;99.90;;;;;;7407088;19;20340;-65
2022/11/21 08:02:06;;;;;;;19.15;9.07;;;0.60;99.90;;;;;;7405836;19;20276;-65
2022/11/21 08:04:35;;;;;;;23.10;10.27;;;0.60;99.90;;;;;;7401949;19;19970;-65
2022/11/21 08:07:04;;;;;;;20.25;9.85;;;0.60;99.90;;;;;;7405115;19;20273;-65
2022/11/21 08:09:33;;;;;;;20.55;10.23;;;0.70;99.90;;;;;;7404536;19;20376;-66
2022/11/21 08:12:02;;;;;;;19.02;10.05;;;0.70;99.90;;;;;;7404642;19;19923;-65
2022/11/21 08:14:31;;;;;;;21.67;9.45;;;0.80;99.90;;;;;;7409161;19;19926;-65
2022/11/21 08:17:03;;;;;;;20.38;9.55;;;0.80;99.90;;;;;;7404804;19;19927;-65
2022/11/21 08:19:32;;;;;;;20.13;10.00;;;0.90;99.90;;;;;;7409091;19;19923;-65
2022/11/21 08:22:02;;;;;;;20.98;10.25;;;1.00;99.90;;;;;;7407711;19;19934;-66
2022/11/21 08:24:31;;;;;;;19.58;9.85;;;1.00;99.90;;;;;;7403626;19;20375;-65
2022/11/21 08:27:01;;;;;;;19.17;10.20;;;1.00;99.90;;;;;;7405405;19;19918;-65
2022/11/21 08:29:30;;;;;;;19.48;10.10;;;1.00;99.90;;;;;;7406580;19;19958;-65
2022/11/21 08:32:02;;;;;;;20.92;9.38;;;1.10;99.90;;;;;;7406497;19;20325;-65
2022/11/21 08:34:33;;;;;;;19.10;9.90;;;1.10;99.90;;;;;;7402459;19;19923;-65
2022/11/21 08:37:01;;;;;;;19.83;10.32;;;1.10;99.90;;;;;;7406759;19;19981;-64
2022/11/21 08:39:30;;;;;;;19.67;9.85;;;1.10;99.90;;;;;;7404373;19;19931;-64
2022/11/21 08:42:06;;;;;;;21.35;10.43;;;1.20;99.90;;;;;;7402148;19;19926;-65
2022/11/21 08:44:36;;;;;;;17.65;9.18;;;1.20;99.90;;;;;;7404475;19;19919;-65
2022/11/21 08:47:08;;;;;;;20.63;10.48;;;1.20;99.90;;;;;;7405463;19;19929;-64
2022/11/21 08:49:37;;;;;;;20.15;10.75;;;1.20;99.90;;;;;;7403659;19;19920;-66
2022/11/21 08:52:06;;;;;;;21.33;10.82;;;1.20;99.90;;;;;;7404076;19;19941;-65
2022/11/21 08:54:35;;;;;;;20.95;10.75;;;1.20;99.90;;;;;;7403656;19;19922;-65
2022/11/21 08:57:05;;;;;;;20.35;10.85;;;1.30;99.90;;;;;;7402858;19;20280;-65
2022/11/21 08:59:34;;;;;;;22.02;9.73;;;1.30;99.90;;;;;;7403382;19;19934;-66
2022/11/21 09:02:03;;;;;;;22.95;10.60;;;1.40;99.90;;;;;;7403483;19;19922;-66
2022/11/21 09:04:36;;;;;;;22.23;11.13;;;1.40;99.90;;;;;;7402390;19;19925;-65
2022/11/21 09:07:05;;;;;;;26.58;11.90;;;1.50;99.90;;;;;;7401399;19;19911;-65
2022/11/21 09:09:34;;;;;;;22.17;11.20;;;1.60;99.90;;;;;;7402944;19;19926;-65
2022/11/21 09:12:04;;;;;;;21.30;11.20;;;1.60;99.90;;;;;;7403223;19;20332;-65
2022/11/21 09:19:59;;;;;;;20.70;10.60;;;1.70;99.90;;;;;;7403733;19;19938;-66
2022/11/21 09:22:28;;;;;;;22.15;11.70;;;1.80;99.90;;;;;;7402742;19;19922;-65
2022/11/21 09:24:57;;;;;;;21.38;10.60;;;1.80;99.90;;;;;;7401711;19;19982;-66
2022/11/21 09:27:26;;;;;;;20.08;10.45;;;1.80;99.90;;;;;;7402660;19;19915;-65
2022/11/21 09:29:55;;;;;;;21.23;11.82;;;1.90;99.90;;;;;;7402462;19;19921;-65
2022/11/21 09:32:25;;;;;;;21.13;11.00;;;1.90;99.90;;;;;;7402895;19;19948;-65
2022/11/21 09:34:54;;;;;;;21.08;10.55;;;2.00;99.90;;;;;;7402289;19;20288;-65
2022/11/21 09:37:26;;;;;;;22.88;11.10;;;2.10;99.90;;;;;;7401751;19;19911;-65
2022/11/21 09:39:55;;;;;;;21.35;11.82;;;2.10;99.90;;;;;;7401549;19;19922;-65
2022/11/21 09:42:52;;;;;;;21.58;10.30;;;2.20;99.90;;;;;;7402470;19;20262;-66
2022/11/21 09:45:27;;;;;;;25.00;11.80;;;2.30;99.90;;;;;;7405071;19;19915;-64
2022/11/21 09:47:57;;;;;;;20.85;10.27;;;2.40;99.90;;;;;;7402228;19;19937;-66
2022/11/21 09:50:32;;;;;;;24.17;11.38;;;2.50;99.90;;;;;;7402946;19;20364;-63
2022/11/21 09:53:08;;;;;;;26.60;11.82;;;2.60;99.90;;;;;;7401596;19;19923;-63
2022/11/21 09:55:46;;;;;;;20.35;9.23;;;2.60;99.90;;;;;;7401443;19;19914;-63
2022/11/21 09:58:23;;;;;;;20.85;10.63;;;2.70;99.90;;;;;;7399311;19;19922;-65
2022/11/21 10:00:53;;;;;;;22.17;11.27;;;2.70;99.90;;;;;;7402051;19;20321;-63
2022/11/21 10:03:27;;;;;;;21.38;9.95;;;2.70;99.90;;;;;;7401530;19;20303;-64
2022/11/21 10:05:59;;;;;;;20.17;9.88;;;2.70;99.90;;;;;;7405412;19;19915;-63
2022/11/21 10:08:43;;;;;;;24.63;12.20;;;2.70;99.90;;;;;;7401100;19;19919;-63
2022/11/21 10:11:23;;;;;;;19.15;10.30;;;2.80;99.90;;;;;;7401141;19;19978;-63
2022/11/21 10:14:03;;;;;;;21.55;9.90;;;2.80;99.90;;;;;;7401265;19;20311;-65
2022/11/21 10:16:42;;;;;;;24.38;10.82;;;2.90;99.90;;;;;;7402518;19;19918;-63
2022/11/21 10:19:23;;;;;;;19.80;9.65;;;3.00;99.90;;;;;;7397605;19;19967;-64
2022/11/21 10:22:25;;;;;;;20.42;9.98;;;2.90;99.90;;;;;;7403143;19;19942;-63
2022/11/21 10:25:04;;;;;;;23.65;10.48;;;2.90;99.90;;;;;;7400449;19;19923;-63
2022/11/21 10:27:38;;;;;;;15.07;7.70;;;3.00;99.90;;;;;;7401325;19;19922;-64
2022/11/21 10:30:15;;;;;;;20.90;10.65;;;3.00;99.90;;;;;;7407772;19;20256;-64
2022/11/21 10:32:47;;;;;;;18.92;9.73;;;3.00;99.90;;;;;;7406305;19;19911;-64
2022/11/21 10:35:19;;;;;;;16.73;9.23;;;3.00;99.90;;;;;;7406708;19;20268;-64
2022/11/21 10:37:52;;;;;;;19.90;8.98;;;3.10;99.90;;;;;;7407084;19;19910;-64
2022/11/21 10:40:47;;;;;;;18.50;9.35;;;3.10;99.90;;;;;;7405278;19;19922;-64
2022/11/21 10:46:11;;;;;;;19.98;10.25;;;3.10;99.90;;;;;;7406029;19;20001;-64
2022/11/21 10:48:40;;;;;;;21.48;10.85;;;3.10;99.90;;;;;;7406996;19;19978;-64
2022/11/21 10:51:27;;;;;;;20.25;9.65;;;3.10;99.90;;;;;;7405598;19;19930;-64
2022/11/21 10:56:51;;;;;;;20.40;9.52;;;3.20;99.90;;;;;;7406719;19;19919;-64
2022/11/21 10:59:26;;;;;;;20.15;9.70;;;3.30;99.90;;;;;;7406916;19;20298;-64
2022/11/21 11:02:00;;;;;;;19.98;9.60;;;3.30;99.90;;;;;;7406891;19;20293;-65
2022/11/21 11:04:30;;;;;;;21.40;10.70;;;3.40;99.90;;;;;;7406542;19;20376;-65
2022/11/21 11:07:15;;;;;;;18.52;9.13;;;3.40;99.90;;;;;;7405030;19;20572;-64
2022/11/21 11:09:46;;;;;;;20.45;9.88;;;3.50;99.90;;;;;;7408803;19;20504;-65
2022/11/21 11:15:26;;;;;;;20.23;10.27;;;3.60;99.90;;;;;;7408122;19;20510;-64
2022/11/21 11:17:58;;;;;;;20.98;10.05;;;3.70;99.90;;;;;;7406104;19;19915;-64
2022/11/21 11:20:35;;;;;;;17.23;9.52;;;3.70;99.90;;;;;;7406627;19;19915;-64
2022/11/21 11:23:18;;;;;;;22.77;10.43;;;3.70;99.90;;;;;;7406130;19;19970;-64
2022/11/21 11:25:48;;;;;;;17.55;9.95;;;3.80;99.90;;;;;;7403891;19;19943;-64
2022/11/21 11:28:22;;;;;;;;;;;3.90;99.90;;;;;;7408750;19;19982;-64
2022/11/21 11:30:55;;;;;;;18.65;9.32;;;3.90;99.90;;;;;;7406416;19;20356;-67
2022/11/21 11:33:36;;;;;;;18.20;8.93;;;4.00;99.90;;;;;;7403629;19;20579;-64
2022/11/21 11:36:16;;;;;;;17.85;9.02;;;4.00;99.90;;;;;;7403121;19;20376;-64
2022/11/21 11:38:53;;;;;;;14.00;8.27;;;4.10;99.90;;;;;;7404541;19;20329;-76
2022/11/21 11:47:37;;;;;;;15.80;8.10;;;4.30;99.90;;;;;;7403806;19;19919;-64
2022/11/21 11:50:14;;;;;;;16.52;8.18;;;4.40;99.90;;;;;;7407058;19;19919;-63
2022/11/21 11:52:55;;;;;;;18.42;8.68;;;4.40;99.90;;;;;;7408225;19;19926;-64
2022/11/21 11:55:32;;;;;;;18.30;7.75;;;4.40;99.90;;;;;;7404362;19;19926;-64
2022/11/21 11:58:04;;;;;;;14.73;7.22;;;4.40;99.90;;;;;;7407197;19;20267;-70
2022/11/21 12:00:43;;;;;;;16.63;8.70;;;4.50;99.90;;;;;;7406633;19;19919;-71
2022/11/21 12:03:17;;;;;;;16.65;7.88;;;4.50;99.90;;;;;;7405616;19;19922;-72
2022/11/21 12:06:07;;;;;;;16.15;7.38;;;4.50;99.90;;;;;;7406792;19;20615;-66
2022/11/21 12:08:42;;;;;;;15.88;8.27;;;4.40;99.90;;;;;;7404821;19;19977;-66
2022/11/21 12:14:13;;;;;;;17.30;7.63;;;4.50;99.90;;;;;;7404901;19;19919;-66
2022/11/21 12:16:44;;;;;;;15.15;6.90;;;4.50;99.90;;;;;;7402463;19;19919;-66
2022/11/21 12:19:17;;;;;;;13.10;7.68;;;4.70;99.90;;;;;;7407218;19;19930;-65
2022/11/21 12:21:46;;;;;;;12.32;6.05;;;5.00;99.90;;;;;;7406360;19;19922;-65
2022/11/21 12:24:19;;;;;;;10.60;6.32;;;5.20;99.90;;;;;;7403622;19;19915;-66
2022/11/21 12:27:00;;;;;;;11.88;5.82;;;5.20;99.90;;;;;;7402073;19;20281;-65
2022/11/21 12:29:42;;;;;;;11.95;5.55;;;5.20;99.90;;;;;;7402337;19;19974;-64
2022/11/21 12:32:27;;;;;;;13.13;6.40;;;5.10;99.90;;;;;;7404771;19;19927;-64
2022/11/21 12:35:10;;;;;;;11.52;5.40;;;5.10;99.90;;;;;;7407167;19;19919;-64
2022/11/21 12:37:42;;;;;;;;;;;5.10;99.90;;;;;;7406709;19;20280;-63
2022/11/21 12:40:26;;;;;;;11.38;5.75;;;5.10;99.90;;;;;;7405816;19;19974;-64
2022/11/21 12:43:03;;;;;;;13.38;6.13;;;5.10;99.90;;;;;;7404672;19;19937;-64
2022/11/21 12:45:35;;;;;;;10.70;5.97;;;5.20;99.90;;;;;;7405427;19;20470;-64
2022/11/21 12:54:37;;;;;;;14.23;7.05;;;5.20;99.90;;;;;;7403758;19;19922;-64
2022/11/21 12:57:12;;;;;;;12.35;7.00;;;5.20;99.90;;;;;;7403375;19;19931;-64
2022/11/21 12:59:58;;;;;;;15.30;7.47;;;5.10;99.90;;;;;;7403587;19;19923;-64
2022/11/21 13:02:36;;;;;;;15.70;6.63;;;5.10;99.90;;;;;;7403758;19;19918;-64
2022/11/21 13:05:14;;;;;;;14.40;6.70;;;5.10;99.90;;;;;;7405184;19;19926;-64
2022/11/21 13:07:44;;;;;;;15.95;6.43;;;5.10;99.90;;;;;;7398208;19;19919;-65
2022/11/21 13:10:17;;;;;;;12.70;6.25;;;5.10;99.90;;;;;;7402499;19;19923;-64
2022/11/21 13:12:52;;;;;;;12.60;6.25;;;5.10;99.90;;;;;;7403759;19;20566;-64
2022/11/21 13:15:28;;;;;;;11.35;5.35;;;5.10;99.90;;;;;;7402343;19;19911;-64
2022/11/21 13:18:00;;;;;;;12.23;6.43;;;5.10;99.90;;;;;;7402831;19;20366;-65
2022/11/21 13:20:39;;;;;;;10.88;5.47;;;5.10;99.90;;;;;;7402812;19;19922;-65
2022/11/21 13:23:39;;;;;;;10.63;4.60;;;5.00;99.90;;;;;;7402801;19;19935;-65
2022/11/21 13:26:38;;;;;;;10.85;5.45;;;5.00;99.90;;;;;;7400218;19;19931;-65
2022/11/21 13:29:12;;;;;;;10.57;4.95;;;5.20;99.90;;;;;;7402891;19;19986;-64
2022/11/21 13:31:42;;;;;;;10.85;5.05;;;5.20;99.90;;;;;;7404671;19;19933;-64
2022/11/21 13:34:39;;;;;;;10.27;4.10;;;5.20;99.90;;;;;;7401765;19;19930;-64
2022/11/21 13:37:11;;;;;;;9.25;4.60;;;5.20;99.90;;;;;;7401358;19;19995;-64
2022/11/21 13:39:40;;;;;;;10.48;4.85;;;5.20;99.90;;;;;;7406280;19;20376;-65
2022/11/21 13:44:56;;;;;;;9.07;4.45;;;5.20;99.90;;;;;;7401171;19;19970;-65
2022/11/21 13:47:55;;;;;;;8.50;4.13;;;5.10;99.90;;;;;;7400529;19;19986;-64
2022/11/21 13:50:47;;;;;;;7.97;3.58;;;5.10;99.90;;;;;;7402772;19;19925;-64